Colfax, WA

10:33 PM PDT on October 22, 2014 (GMT -0700)
APRSWXNET Pullman WA US | Change Station
CLOSE
Current Station
Personal Weather Station
Location: Pullman, WA
Elevation: 2583 ft
Nearby Weather Stations

Elev 2583 ft 46.75 °N, 117.18 °W | Updated 52 minutes ago

Rain
Rain
53 °F
Feels Like 53 °F
N
3
Wind Variable Wind from SE
Gusts 5.0 mph

Today
High -- | Low -- °F
--% Chance of Precip.
Yesterday
High -- | Low -- °F
Precip. -- in
7:17 AM 5:49 PM
Waning Crescent, 0% visible
Pressure 29.85 in
Visibility 6.0 miles
Clouds Overcast 6000 ft
Dew Point 43 °F
Humidity 70%
Rainfall 0.02 in
Snow Depth Not available.
UV 0 out of 12
Pollen 2.90 out of 12
Air Quality Not available.
Flu Activity Sporadic
METAR KPUW 230453Z AUTO 15011KT 6SM -RA OVC060 12/06 A2984 RMK AO2 SLP107 P0003 T01170056

More Conditions Fewer Conditions

Pressure 29.85 in
Visibility 6.0 miles
Clouds Overcast 6000 ft
Dew Point 43 °F
Humidity 70%
Rainfall 0.02 in
Snow Depth Not available.
UV 0 out of 12
Pollen 2.90 out of 12
Air Quality Not available.
Flu Activity Sporadic
METAR KPUW 230453Z AUTO 15011KT 6SM -RA OVC060 12/06 A2984 RMK AO2 SLP107 P0003 T01170056

More Conditions Fewer Conditions

10-Day Weather Forecast

Almanac

Astronomy

Oct. 22, 2014 Rise Set
Actual Time 7:17 AM PDT 5:49 PM PDT
Civil Twilight 6:46 AM PDT 6:20 PM PDT
Nautical Twilight 6:11 AM PDT 6:55 PM PDT
Astronomical Twilight 5:35 AM PDT 7:31 PM PDT
Moon 5:58 AM PDT (10/22) 5:21 PM PDT (10/22)
Length of Visible Light 11h 34m
Length of Day
10h 32m
Tomorrow will be 3m 10s shorter.
Waning Crescent, 0% of the Moon is Illuminated
Oct 23
Waning Crescent
Oct 23
New
Oct 30
First Quarter
Nov 6
Full
Nov 14
Last Quarter

Yesterday's Extremes

State Highs State Lows

Community

WunderPhotos

Upload Photos

1,764,184 photos uploaded!

Nearby

Snow Depth

Station Depth Elevation
Sourdough Gulch 0 in 4000 ft
Spruce Springs 1 in 5700 ft
Quartz Peak 1 in 4700 ft
Bunchgrass Meadow 0 in 5000 ft
Moses Mountain 0 in 5300 ft

Earthquake Activity

City Distance Mag. Time & Date
No recent earthquake activity has been reported nearby.
Minimum magnitude displayed is 2.5.

Coastal Water Temperatures

Place Temperature
No Stations Reporting

Nearby Weather Stations